Time;durP1;ratioP1;P1;durP2;ratioP2;P2;SDS_P1;SDS_P2;PMS_P1;PMS_P2;Temp;Humidity;BMP_temperature;BMP_pressure;BME280_temperature;BME280_humidity;BME280_pressure;Samples;Min_cycle;Max_cycle;Signal;HPM_P1;HPM_P2
2023/07/11 00:00:15;;;;;;;3.40;1.90;;;23.60;61.90;;;;;;5094107;28;20440;-54
2023/07/11 00:02:43;;;;;;;3.40;2.10;;;23.60;62.00;;;;;;5094325;28;20464;-54
2023/07/11 00:05:12;;;;;;;3.83;2.10;;;23.70;59.80;;;;;;5093948;28;20450;-54
2023/07/11 00:07:38;;;;;;;3.30;1.80;;;23.70;59.50;;;;;;5093648;28;20455;-54
2023/07/11 00:10:06;;;;;;;5.30;2.00;;;23.80;59.20;;;;;;5093897;28;20480;-54
2023/07/11 00:12:33;;;;;;;4.40;2.40;;;23.80;58.30;;;;;;5093833;28;20463;-54
2023/07/11 00:15:00;;;;;;;5.93;1.70;;;23.80;58.30;;;;;;5093566;28;20980;-54
2023/07/11 00:17:26;;;;;;;5.90;2.37;;;23.90;58.50;;;;;;5093554;28;20509;-54
2023/07/11 00:19:57;;;;;;;2.93;1.63;;;24.00;58.50;;;;;;5093468;28;20933;-54
2023/07/11 00:22:27;;;;;;;3.70;2.47;;;24.00;58.60;;;;;;5093761;28;20503;-54
2023/07/11 00:24:54;;;;;;;7.30;2.23;;;24.10;58.60;;;;;;5094777;28;20527;-54
2023/07/11 00:27:23;;;;;;;3.90;1.93;;;24.10;58.10;;;;;;5093672;28;20785;-54
2023/07/11 00:29:51;;;;;;;4.73;2.30;;;24.10;57.40;;;;;;5093596;28;20480;-54
2023/07/11 00:32:18;;;;;;;5.50;2.70;;;24.10;57.30;;;;;;5093195;28;20451;-54
2023/07/11 00:34:44;;;;;;;5.07;1.90;;;24.10;57.90;;;;;;5093610;28;20444;-54
2023/07/11 00:37:12;;;;;;;2.63;1.93;;;24.20;58.20;;;;;;5093216;28;20804;-54
2023/07/11 00:39:39;;;;;;;4.20;2.33;;;24.30;58.20;;;;;;5093550;28;20497;-54
2023/07/11 00:42:08;;;;;;;5.10;2.00;;;24.20;57.60;;;;;;5093476;28;20493;-54
2023/07/11 00:44:50;;;;;;;6.47;2.40;;;24.30;57.50;;;;;;5093228;28;20817;-54
2023/07/11 00:47:16;;;;;;;2.30;1.90;;;24.30;57.30;;;;;;5093546;28;20462;-54
2023/07/11 00:49:43;;;;;;;11.03;2.80;;;24.30;58.10;;;;;;5093414;28;20475;-54
2023/07/11 00:52:13;;;;;;;6.10;2.63;;;24.30;58.30;;;;;;5093421;28;20447;-54
2023/07/11 00:54:41;;;;;;;3.73;2.47;;;24.30;58.00;;;;;;5094197;28;20451;-54
2023/07/11 00:57:10;;;;;;;4.43;2.50;;;24.20;57.60;;;;;;5093311;28;20455;-54
2023/07/11 00:59:37;;;;;;;4.43;2.40;;;24.20;57.60;;;;;;5093292;28;20470;-54
2023/07/11 01:02:08;;;;;;;3.93;2.10;;;24.10;57.90;;;;;;5093289;28;20517;-54
2023/07/11 01:04:36;;;;;;;4.80;2.43;;;24.20;58.00;;;;;;5093408;28;20432;-54
2023/07/11 01:07:03;;;;;;;3.80;2.33;;;24.10;58.60;;;;;;5093330;28;20444;-54
2023/07/11 01:09:31;;;;;;;9.57;2.43;;;24.10;58.70;;;;;;5094696;28;20882;-55
2023/07/11 01:12:00;;;;;;;3.50;2.20;;;24.10;59.00;;;;;;5097097;28;20949;-54
2023/07/11 01:14:27;;;;;;;8.03;2.30;;;24.10;59.00;;;;;;5097191;28;20475;-54
2023/07/11 01:16:54;;;;;;;3.23;2.30;;;24.20;59.10;;;;;;5097224;28;20512;-55
2023/07/11 01:19:22;;;;;;;4.33;2.33;;;24.10;59.20;;;;;;5096851;28;20460;-55
2023/07/11 01:21:51;;;;;;;4.13;2.70;;;24.10;59.20;;;;;;5096822;28;20929;-55
2023/07/11 01:24:17;;;;;;;5.07;2.23;;;24.10;59.50;;;;;;5097063;28;20494;-55
2023/07/11 01:26:44;;;;;;;3.93;2.20;;;24.10;59.70;;;;;;5097042;28;20474;-55
2023/07/11 01:29:11;;;;;;;3.70;2.40;;;24.00;59.70;;;;;;5096693;28;21049;-55
2023/07/11 01:31:38;;;;;;;2.60;2.17;;;24.00;60.00;;;;;;5096966;28;20535;-55
2023/07/11 01:34:06;;;;;;;5.60;2.00;;;23.90;59.90;;;;;;5096532;28;20500;-55
2023/07/11 01:36:34;;;;;;;5.30;2.60;;;23.90;60.20;;;;;;5096582;28;20956;-55
2023/07/11 01:39:02;;;;;;;4.13;2.10;;;23.80;60.40;;;;;;5096536;28;20800;-55
2023/07/11 01:41:28;;;;;;;4.37;2.30;;;23.80;60.50;;;;;;5096798;28;20455;-55
2023/07/11 01:43:56;;;;;;;3.07;2.30;;;23.70;61.20;;;;;;5096616;28;20524;-55
2023/07/11 01:46:22;;;;;;;3.47;2.00;;;23.60;61.60;;;;;;5096660;28;20542;-55
2023/07/11 01:48:49;;;;;;;2.97;1.90;;;23.60;62.40;;;;;;5096602;28;20490;-55
2023/07/11 01:51:16;;;;;;;2.60;1.83;;;23.60;62.60;;;;;;5096591;28;20435;-55
2023/07/11 01:53:43;;;;;;;8.20;2.60;;;23.50;62.50;;;;;;5096533;28;20479;-55
2023/07/11 01:56:11;;;;;;;2.80;1.80;;;23.50;62.70;;;;;;5096465;28;20458;-55
2023/07/11 01:58:39;;;;;;;5.70;2.70;;;23.40;62.80;;;;;;5096716;28;20447;-55
2023/07/11 02:01:05;;;;;;;3.77;2.87;;;23.40;63.30;;;;;;5096514;28;20479;-55
2023/07/11 02:03:32;;;;;;;6.10;2.60;;;23.40;63.80;;;;;;5096353;28;20467;-55
2023/07/11 02:05:59;;;;;;;4.37;1.93;;;23.40;64.40;;;;;;5096253;28;20439;-55
2023/07/11 02:08:26;;;;;;;4.73;2.30;;;23.30;64.20;;;;;;5096224;28;20469;-55
2023/07/11 02:10:53;;;;;;;8.00;2.90;;;23.30;64.30;;;;;;5095825;28;21062;-55
2023/07/11 02:13:21;;;;;;;5.70;2.23;;;23.30;64.20;;;;;;5096091;28;20881;-55
2023/07/11 02:15:47;;;;;;;7.10;3.30;;;23.30;64.00;;;;;;5096122;28;20444;-55
2023/07/11 02:18:14;;;;;;;3.57;2.53;;;23.20;63.90;;;;;;5095929;28;20448;-55
2023/07/11 02:20:41;;;;;;;7.50;2.77;;;23.20;64.20;;;;;;5094679;28;20485;-55
2023/07/11 02:23:09;;;;;;;3.60;2.40;;;23.20;64.70;;;;;;5095912;28;20463;-55
2023/07/11 02:25:36;;;;;;;6.77;3.37;;;23.10;64.80;;;;;;5096150;28;20459;-55
2023/07/11 02:28:03;;;;;;;3.83;2.00;;;23.10;64.90;;;;;;5095895;28;20538;-55
2023/07/11 02:30:31;;;;;;;5.60;3.07;;;23.00;65.10;;;;;;5095810;28;20476;-55
2023/07/11 02:32:58;;;;;;;7.50;2.50;;;23.00;65.40;;;;;;5096379;28;20476;-55
2023/07/11 02:35:25;;;;;;;6.70;2.63;;;23.00;65.60;;;;;;5095452;28;20967;-55
2023/07/11 02:37:52;;;;;;;3.30;2.73;;;22.90;65.60;;;;;;5095439;28;20448;-55
2023/07/11 02:40:19;;;;;;;4.30;2.47;;;23.00;66.00;;;;;;5095333;28;20941;-55
2023/07/11 02:42:46;;;;;;;4.67;2.43;;;22.90;65.90;;;;;;5095597;28;20503;-55
2023/07/11 02:45:13;;;;;;;3.47;1.93;;;22.90;66.10;;;;;;5095600;28;20493;-55
2023/07/11 02:47:41;;;;;;;5.50;3.40;;;22.80;66.00;;;;;;5095503;28;20448;-55
2023/07/11 02:50:09;;;;;;;2.60;2.40;;;22.80;66.30;;;;;;5095488;28;20480;-55
2023/07/11 02:52:35;;;;;;;5.03;2.40;;;22.80;66.70;;;;;;5095359;28;20467;-55
2023/07/11 02:55:02;;;;;;;3.57;2.53;;;22.70;66.50;;;;;;5095434;28;20448;-55
2023/07/11 02:57:29;;;;;;;4.67;2.53;;;22.60;67.60;;;;;;5095149;28;20452;-55
2023/07/11 02:59:55;;;;;;;5.20;2.40;;;22.60;67.30;;;;;;5095056;28;20451;-54
2023/07/11 03:02:22;;;;;;;3.87;3.47;;;22.50;67.60;;;;;;5095193;28;20472;-54
2023/07/11 03:04:51;;;;;;;5.27;2.77;;;22.50;67.80;;;;;;5095331;28;20448;-54
2023/07/11 03:07:18;;;;;;;4.30;2.23;;;22.40;68.00;;;;;;5095134;28;20517;-54
2023/07/11 03:09:45;;;;;;;3.50;2.57;;;22.30;68.10;;;;;;5095155;28;20475;-54
2023/07/11 03:12:11;;;;;;;7.33;3.30;;;22.30;68.60;;;;;;5094926;28;20444;-54
2023/07/11 03:14:38;;;;;;;5.50;3.27;;;22.20;69.00;;;;;;5094812;28;20447;-55
2023/07/11 03:17:05;;;;;;;5.53;2.70;;;22.20;69.30;;;;;;5094647;28;20444;-55
2023/07/11 03:19:32;;;;;;;8.63;3.93;;;22.20;69.60;;;;;;5094745;28;20459;-55
2023/07/11 03:22:00;;;;;;;5.10;2.97;;;22.20;69.80;;;;;;5094888;28;20463;-55
2023/07/11 03:24:27;;;;;;;14.80;3.30;;;22.20;69.70;;;;;;5094762;28;20459;-55
2023/07/11 03:26:54;;;;;;;4.90;3.20;;;22.20;69.60;;;;;;5094420;28;20451;-55
2023/07/11 03:29:21;;;;;;;5.70;3.63;;;22.20;69.60;;;;;;5094361;28;20475;-55
2023/07/11 03:31:47;;;;;;;7.10;3.33;;;22.10;69.70;;;;;;5094222;28;20448;-55
2023/07/11 03:34:14;;;;;;;7.30;3.10;;;22.10;70.20;;;;;;5094522;28;20826;-55
2023/07/11 03:36:42;;;;;;;3.40;2.87;;;22.10;70.60;;;;;;5094565;28;20448;-55
2023/07/11 03:39:10;;;;;;;5.40;3.10;;;22.10;71.00;;;;;;5094193;28;20843;-55
2023/07/11 03:41:36;;;;;;;6.37;4.23;;;22.10;71.20;;;;;;5094426;28;20512;-55
2023/07/11 03:44:03;;;;;;;9.53;3.83;;;22.00;71.30;;;;;;5094401;28;20547;-55
2023/07/11 03:46:30;;;;;;;5.53;3.53;;;22.00;71.30;;;;;;5094364;28;20459;-55
2023/07/11 03:48:59;;;;;;;5.60;2.90;;;22.00;71.30;;;;;;5094068;28;20965;-55
2023/07/11 03:51:26;;;;;;;5.73;3.50;;;22.00;71.60;;;;;;5094270;28;20475;-55
2023/07/11 03:53:53;;;;;;;10.30;3.93;;;21.90;71.60;;;;;;5094217;28;20486;-54
2023/07/11 03:56:21;;;;;;;8.00;3.87;;;21.90;71.90;;;;;;5093865;28;20785;-56
2023/07/11 03:58:47;;;;;;;4.77;3.27;;;21.90;72.20;;;;;;5093976;28;20458;-56
2023/07/11 04:01:14;;;;;;;6.73;3.30;;;21.90;72.30;;;;;;5094097;28;20439;-55
2023/07/11 04:03:43;;;;;;;6.27;2.97;;;21.80;72.40;;;;;;5093676;28;20989;-54
2023/07/11 04:06:10;;;;;;;5.43;3.80;;;21.80;72.70;;;;;;5093921;28;20860;-54
2023/07/11 04:08:37;;;;;;;6.30;3.93;;;21.80;72.80;;;;;;5093960;28;20447;-54
2023/07/11 04:11:04;;;;;;;6.60;3.73;;;21.80;72.80;;;;;;5093886;28;20576;-55
2023/07/11 04:13:32;;;;;;;7.93;3.80;;;21.80;72.90;;;;;;5093813;28;20483;-54
2023/07/11 04:15:59;;;;;;;6.10;3.20;;;21.80;73.20;;;;;;5093977;28;20455;-54
2023/07/11 04:18:26;;;;;;;5.00;3.87;;;21.80;73.60;;;;;;5093637;28;20493;-55
2023/07/11 04:20:52;;;;;;;6.30;3.93;;;21.90;73.70;;;;;;5093857;28;20435;-55
2023/07/11 04:23:19;;;;;;;12.30;4.37;;;21.90;73.40;;;;;;5093667;28;20468;-55
2023/07/11 04:25:46;;;;;;;8.60;3.57;;;21.90;73.30;;;;;;5093793;28;20452;-54
2023/07/11 04:28:12;;;;;;;5.90;4.00;;;21.90;73.50;;;;;;5093667;28;20447;-55
2023/07/11 04:30:40;;;;;;;6.33;3.90;;;21.90;73.60;;;;;;5093627;28;20490;-55
2023/07/11 04:33:07;;;;;;;7.10;4.70;;;22.00;74.20;;;;;;5093557;28;20470;-55
2023/07/11 04:35:34;;;;;;;6.83;3.80;;;21.90;75.00;;;;;;5093603;28;20444;-55
2023/07/11 04:38:00;;;;;;;6.23;4.70;;;21.90;74.50;;;;;;5093650;28;20448;-54
2023/07/11 04:40:27;;;;;;;9.30;4.33;;;21.90;75.00;;;;;;5093637;28;20439;-54
2023/07/11 04:42:57;;;;;;;6.53;4.30;;;22.00;75.20;;;;;;5093436;28;20471;-55
2023/07/11 04:45:24;;;;;;;5.90;3.60;;;21.90;75.10;;;;;;5092774;28;20454;-55
2023/07/11 04:47:52;;;;;;;10.10;5.00;;;21.90;74.90;;;;;;5094122;28;20456;-55
2023/07/11 04:50:18;;;;;;;4.97;3.90;;;21.90;75.30;;;;;;5093340;28;20475;-55
2023/07/11 04:52:45;;;;;;;5.43;3.47;;;22.00;75.30;;;;;;5093286;28;20481;-55
2023/07/11 04:55:13;;;;;;;6.47;3.30;;;22.00;75.60;;;;;;5093329;28;20458;-55
2023/07/11 04:57:39;;;;;;;10.00;3.90;;;21.90;75.70;;;;;;5093363;28;20451;-55
2023/07/11 05:00:08;;;;;;;7.20;4.00;;;22.00;76.00;;;;;;5093306;28;20455;-55
2023/07/11 05:02:35;;;;;;;8.27;3.60;;;22.10;76.20;;;;;;5093223;28;20467;-55
2023/07/11 05:05:03;;;;;;;6.13;3.70;;;22.10;76.30;;;;;;5093238;28;20839;-55
2023/07/11 05:07:29;;;;;;;6.73;3.60;;;22.10;76.20;;;;;;5093227;28;20487;-55
2023/07/11 05:09:56;;;;;;;5.27;4.43;;;22.20;76.40;;;;;;5093250;28;20850;-55
2023/07/11 05:12:23;;;;;;;4.13;2.80;;;22.20;76.50;;;;;;5094055;28;20462;-55
2023/07/11 05:14:50;;;;;;;4.77;3.23;;;22.20;75.50;;;;;;5093246;28;20493;-55
2023/07/11 05:17:17;;;;;;;3.87;2.90;;;22.30;74.90;;;;;;5093184;28;20550;-55
2023/07/11 05:19:44;;;;;;;3.50;3.20;;;22.30;75.40;;;;;;5093836;28;20509;-56
2023/07/11 05:22:12;;;;;;;8.70;3.20;;;22.30;72.70;;;;;;5095580;28;20440;-55
2023/07/11 05:24:38;;;;;;;4.53;2.90;;;22.40;72.40;;;;;;5094982;28;20960;-56
2023/07/11 05:27:05;;;;;;;5.73;2.77;;;22.40;71.80;;;;;;5092724;28;20941;-56
2023/07/11 05:29:33;;;;;;;6.27;2.80;;;22.50;72.60;;;;;;5092798;28;20960;-55
2023/07/11 05:32:00;;;;;;;4.80;2.73;;;22.50;70.20;;;;;;5092608;28;21012;-55
2023/07/11 05:34:27;;;;;;;4.83;2.80;;;22.60;70.60;;;;;;5092961;28;20463;-55
2023/07/11 05:36:53;;;;;;;4.50;2.63;;;22.60;69.90;;;;;;5092995;28;20455;-55
2023/07/11 05:39:21;;;;;;;3.97;2.77;;;22.70;70.60;;;;;;5093037;28;20474;-55
2023/07/11 05:41:51;;;;;;;3.27;2.33;;;22.70;70.70;;;;;;5092961;28;20448;-55
2023/07/11 05:44:18;;;;;;;5.23;2.97;;;22.70;69.80;;;;;;5092822;28;20475;-55
2023/07/11 05:46:45;;;;;;;4.03;3.10;;;22.80;69.30;;;;;;5092936;28;20941;-55
2023/07/11 05:49:12;;;;;;;8.43;2.50;;;22.90;68.90;;;;;;5092834;28;20534;-55
2023/07/11 05:51:38;;;;;;;6.20;2.70;;;22.90;69.60;;;;;;5092732;28;20482;-55
2023/07/11 05:54:05;;;;;;;3.30;2.93;;;23.00;70.30;;;;;;5093013;28;20516;-56
2023/07/11 05:56:33;;;;;;;3.10;2.60;;;23.10;68.70;;;;;;5095737;28;20542;-56
2023/07/11 05:59:00;;;;;;;3.10;2.77;;;23.20;68.50;;;;;;5096075;28;20839;-55
2023/07/11 06:01:29;;;;;;;6.10;2.70;;;23.20;68.20;;;;;;5096392;28;20439;-55
2023/07/11 06:04:08;;;;;;;3.77;2.27;;;23.30;67.60;;;;;;5097153;28;20803;-56
2023/07/11 06:06:41;;;;;;;4.73;2.83;;;23.40;67.10;;;;;;5096295;28;20446;-56
2023/07/11 06:09:09;;;;;;;5.00;2.80;;;23.40;66.50;;;;;;5096429;28;20428;-56
2023/07/11 06:11:37;;;;;;;8.73;3.00;;;23.50;66.50;;;;;;5096199;28;20893;-56
2023/07/11 06:14:04;;;;;;;4.40;2.50;;;23.60;65.60;;;;;;5096078;28;20486;-56
2023/07/11 06:16:31;;;;;;;7.87;2.97;;;23.60;65.60;;;;;;5096209;28;20452;-56
2023/07/11 06:18:58;;;;;;;9.30;3.30;;;23.60;66.10;;;;;;5095903;28;20558;-56
2023/07/11 06:21:25;;;;;;;5.20;2.37;;;23.70;65.90;;;;;;5096044;28;20443;-56
2023/07/11 06:23:52;;;;;;;3.63;2.47;;;23.80;65.90;;;;;;5096026;28;20517;-56
2023/07/11 06:26:18;;;;;;;5.60;2.73;;;23.80;65.30;;;;;;5095657;28;20915;-56
2023/07/11 06:28:46;;;;;;;3.60;2.30;;;23.90;66.00;;;;;;5095843;28;20452;-56
2023/07/11 06:31:13;;;;;;;4.50;2.63;;;24.10;65.10;;;;;;5095807;28;20486;-56
2023/07/11 06:33:40;;;;;;;5.27;3.40;;;24.10;64.90;;;;;;5095744;28;20470;-56
2023/07/11 06:36:08;;;;;;;2.83;2.10;;;24.30;64.30;;;;;;5095398;28;20952;-56
2023/07/11 06:38:35;;;;;;;3.60;2.77;;;24.30;62.70;;;;;;5095471;28;20953;-56
2023/07/11 06:41:03;;;;;;;3.70;2.77;;;24.40;62.50;;;;;;5095749;28;20443;-56
2023/07/11 06:43:30;;;;;;;4.53;2.73;;;24.40;62.50;;;;;;5095606;28;20475;-55
2023/07/11 06:45:59;;;;;;;6.30;2.47;;;24.50;62.40;;;;;;5095498;28;20452;-56
2023/07/11 06:48:29;;;;;;;7.07;3.10;;;24.60;61.90;;;;;;5095549;28;20458;-55
2023/07/11 06:50:57;;;;;;;4.73;2.70;;;24.60;61.50;;;;;;5095402;28;20483;-56
2023/07/11 06:53:27;;;;;;;2.80;2.60;;;24.70;61.60;;;;;;5095069;28;21056;-56
2023/07/11 06:55:54;;;;;;;11.20;3.47;;;24.90;61.70;;;;;;5095506;28;20447;-56
2023/07/11 06:58:21;;;;;;;2.50;2.30;;;25.00;61.10;;;;;;5095660;28;20454;-56
2023/07/11 07:00:53;;;;;;;5.00;2.83;;;25.10;60.80;;;;;;5095606;28;20447;-56
2023/07/11 07:03:22;;;;;;;6.53;2.90;;;25.30;60.50;;;;;;5095592;28;20529;-53
2023/07/11 07:05:50;;;;;;;3.83;2.40;;;25.40;58.90;;;;;;5095170;28;20944;-54
2023/07/11 07:08:17;;;;;;;4.53;2.70;;;25.50;58.70;;;;;;5094559;28;20969;-54
2023/07/11 07:10:47;;;;;;;3.70;2.67;;;25.60;58.30;;;;;;5095075;28;20506;-54
2023/07/11 07:13:14;;;;;;;5.60;2.67;;;25.70;58.30;;;;;;5095604;28;20504;-54
2023/07/11 07:15:41;;;;;;;4.20;2.47;;;25.90;57.80;;;;;;5095050;28;20466;-54
2023/07/11 07:18:07;;;;;;;9.33;3.00;;;26.00;57.60;;;;;;5094838;28;20817;-54
2023/07/11 07:20:36;;;;;;;7.07;3.17;;;26.10;57.40;;;;;;5094915;28;20458;-54
2023/07/11 07:23:04;;;;;;;5.83;2.53;;;26.20;56.80;;;;;;5094884;28;20463;-54
2023/07/11 07:25:31;;;;;;;11.53;3.30;;;26.40;56.70;;;;;;5094789;28;20822;-54
2023/07/11 07:27:58;;;;;;;13.00;3.10;;;26.50;56.30;;;;;;5094840;28;20855;-55
2023/07/11 07:30:25;;;;;;;5.07;2.57;;;26.70;56.40;;;;;;5094714;28;20450;-55
2023/07/11 07:32:52;;;;;;;6.90;3.20;;;26.80;56.30;;;;;;5094647;28;20467;-55
2023/07/11 07:35:18;;;;;;;8.13;2.60;;;27.00;56.10;;;;;;5094711;28;20451;-55
2023/07/11 07:37:47;;;;;;;6.10;2.50;;;27.10;55.70;;;;;;5094616;28;20448;-55
2023/07/11 07:40:14;;;;;;;5.30;2.90;;;27.30;55.70;;;;;;5094596;28;20448;-55
2023/07/11 07:42:41;;;;;;;4.57;2.80;;;27.40;54.80;;;;;;5094111;28;20845;-55
2023/07/11 07:45:09;;;;;;;7.13;2.93;;;27.60;54.40;;;;;;5094501;28;20522;-55
2023/07/11 07:47:36;;;;;;;5.30;2.63;;;27.80;53.40;;;;;;5094378;28;20447;-55
2023/07/11 07:50:03;;;;;;;6.90;3.60;;;28.00;52.90;;;;;;5094003;28;20937;-55
2023/07/11 07:52:29;;;;;;;12.17;3.53;;;28.20;53.00;;;;;;5093959;28;20996;-55
2023/07/11 07:54:57;;;;;;;9.03;3.20;;;28.50;52.40;;;;;;5094246;28;20831;-55
2023/07/11 07:57:25;;;;;;;6.83;2.80;;;28.70;52.00;;;;;;5093912;28;20968;-56
2023/07/11 07:59:52;;;;;;;8.47;2.87;;;28.90;50.90;;;;;;5094239;28;20539;-55
2023/07/11 08:02:18;;;;;;;7.23;3.03;;;29.10;50.10;;;;;;5094091;28;20444;-55
2023/07/11 08:04:47;;;;;;;4.47;2.63;;;29.30;49.50;;;;;;5093812;28;20840;-56
2023/07/11 08:07:14;;;;;;;8.10;2.90;;;29.50;48.90;;;;;;5094045;28;20505;-53
2023/07/11 08:09:41;;;;;;;4.80;2.20;;;29.80;48.50;;;;;;5094031;28;20443;-55
2023/07/11 08:12:11;;;;;;;3.00;2.53;;;30.00;47.90;;;;;;5093803;28;20529;-55
2023/07/11 08:14:39;;;;;;;7.73;2.90;;;30.30;46.20;;;;;;5093963;28;20428;-55
2023/07/11 08:17:07;;;;;;;6.57;2.83;;;30.40;46.50;;;;;;5093883;28;20446;-56
2023/07/11 08:19:34;;;;;;;5.67;2.70;;;30.50;46.40;;;;;;5093389;28;21018;-56
2023/07/11 08:22:01;;;;;;;6.23;2.70;;;30.60;45.30;;;;;;5093869;28;20462;-54
2023/07/11 08:24:28;;;;;;;15.90;3.20;;;30.70;44.70;;;;;;5093788;28;20870;-54
2023/07/11 08:26:55;;;;;;;6.77;3.20;;;30.80;44.80;;;;;;5093476;28;20802;-54
2023/07/11 08:29:23;;;;;;;5.13;2.70;;;31.00;45.00;;;;;;5093737;28;20444;-54
2023/07/11 08:31:50;;;;;;;5.47;2.60;;;31.20;45.00;;;;;;5093630;28;20471;-54
2023/07/11 08:34:17;;;;;;;9.00;2.83;;;31.30;43.50;;;;;;5093265;28;20852;-54
2023/07/11 08:36:46;;;;;;;9.23;2.73;;;31.30;42.50;;;;;;5093631;28;20439;-54
2023/07/11 08:39:13;;;;;;;4.83;2.60;;;31.30;42.40;;;;;;5093662;28;20534;-54
2023/07/11 08:41:45;;;;;;;3.57;2.50;;;31.30;42.50;;;;;;5093613;28;20475;-54
2023/07/11 08:44:17;;;;;;;6.03;2.53;;;31.30;42.20;;;;;;5093561;28;20524;-54
2023/07/11 08:46:52;;;;;;;5.20;2.50;;;31.40;41.40;;;;;;5093561;28;20424;-54
2023/07/11 08:49:26;;;;;;;5.60;3.43;;;31.50;41.40;;;;;;5093583;28;20481;-54
2023/07/11 08:51:55;;;;;;;12.43;3.30;;;31.70;39.70;;;;;;5093555;28;20495;-54
2023/07/11 08:54:28;;;;;;;5.30;2.47;;;31.70;38.80;;;;;;5093322;28;20528;-54
2023/07/11 08:56:58;;;;;;;6.57;2.73;;;31.60;39.80;;;;;;5093479;28;20427;-54
2023/07/11 08:59:35;;;;;;;4.93;2.47;;;31.60;38.90;;;;;;5093408;28;20454;-54
2023/07/11 09:02:20;;;;;;;5.63;2.77;;;31.40;39.30;;;;;;5093382;28;20423;-54
2023/07/11 09:04:52;;;;;;;10.90;3.00;;;31.30;39.30;;;;;;5094018;28;20435;-54
2023/07/11 09:07:31;;;;;;;6.50;2.57;;;31.20;39.10;;;;;;5093334;28;20427;-54
2023/07/11 09:09:58;;;;;;;6.43;2.57;;;31.00;39.30;;;;;;5093279;28;20442;-54
2023/07/11 09:12:38;;;;;;;5.70;2.20;;;30.90;39.80;;;;;;5093118;28;21071;-54
2023/07/11 09:15:13;;;;;;;9.47;2.70;;;30.80;40.30;;;;;;5093152;28;20431;-54
2023/07/11 09:17:57;;;;;;;8.73;2.40;;;30.90;40.60;;;;;;5092986;28;20431;-54
2023/07/11 09:20:35;;;;;;;4.47;2.50;;;31.00;40.60;;;;;;5092982;28;20462;-54
2023/07/11 09:23:13;;;;;;;5.77;2.43;;;31.20;40.50;;;;;;5093371;28;20835;-54
2023/07/11 09:25:43;;;;;;;4.40;2.20;;;31.30;40.30;;;;;;5093177;28;20898;-54
2023/07/11 09:28:15;;;;;;;5.10;2.30;;;31.40;39.80;;;;;;5093171;28;20452;-54
2023/07/11 09:30:48;;;;;;;6.00;2.60;;;31.60;39.00;;;;;;5094905;28;20438;-54
2023/07/11 09:33:20;;;;;;;4.80;2.67;;;31.80;39.40;;;;;;5096611;28;20897;-54
2023/07/11 09:35:47;;;;;;;7.93;2.60;;;32.10;40.50;;;;;;5096995;28;20439;-55
2023/07/11 09:38:18;;;;;;;4.80;2.80;;;32.30;37.90;;;;;;5096878;28;20466;-54
2023/07/11 09:40:50;;;;;;;5.27;2.40;;;32.50;38.10;;;;;;5096884;28;20466;-55
2023/07/11 09:43:16;;;;;;;6.00;2.53;;;32.70;36.80;;;;;;5096824;28;20459;-55
2023/07/11 09:45:44;;;;;;;3.50;2.50;;;32.80;37.30;;;;;;5096734;28;20449;-55
2023/07/11 09:48:15;;;;;;;4.83;2.47;;;33.00;36.10;;;;;;5096725;28;20454;-55
2023/07/11 09:50:53;;;;;;;13.03;3.60;;;33.20;38.40;;;;;;5096790;28;20446;-55
2023/07/11 09:53:26;;;;;;;2.70;2.37;;;33.40;37.80;;;;;;5096635;28;20544;-55
2023/07/11 09:55:54;;;;;;;8.57;2.50;;;33.50;35.70;;;;;;5096537;28;20811;-55
2023/07/11 09:58:21;;;;;;;3.23;2.70;;;33.80;35.40;;;;;;5096696;28;20446;-55
2023/07/11 10:00:50;;;;;;;5.93;2.60;;;34.10;34.90;;;;;;5096569;28;20470;-54
2023/07/11 10:03:19;;;;;;;9.80;3.03;;;34.50;34.10;;;;;;5096259;28;20520;-55
2023/07/11 10:05:49;;;;;;;4.93;2.40;;;34.90;32.70;;;;;;5096416;28;20447;-55
2023/07/11 10:08:19;;;;;;;5.50;2.97;;;35.20;32.00;;;;;;5096578;28;20431;-55
2023/07/11 10:10:47;;;;;;;7.17;2.77;;;35.50;31.40;;;;;;5096373;28;20447;-55
2023/07/11 10:13:16;;;;;;;4.33;2.37;;;35.50;31.10;;;;;;5095807;28;21006;-55
2023/07/11 10:15:43;;;;;;;7.20;2.47;;;35.70;30.30;;;;;;5096356;28;20485;-54
2023/07/11 10:18:21;;;;;;;4.53;2.50;;;35.80;29.90;;;;;;5096085;28;20815;-55
2023/07/11 10:20:52;;;;;;;7.93;2.60;;;36.00;29.50;;;;;;5096613;28;20435;-55
2023/07/11 10:23:24;;;;;;;6.70;2.97;;;36.30;29.00;;;;;;5096037;28;20463;-55
2023/07/11 10:25:53;;;;;;;5.37;2.33;;;36.20;28.30;;;;;;5096118;28;20863;-54
2023/07/11 10:28:27;;;;;;;4.67;2.77;;;36.20;28.60;;;;;;5096122;28;20236;-54
2023/07/11 10:30:56;;;;;;;4.97;2.53;;;36.30;29.80;;;;;;5095973;28;20467;-54
2023/07/11 10:33:26;;;;;;;12.93;2.70;;;36.40;30.10;;;;;;5095972;28;20229;-55
2023/07/11 10:36:03;;;;;;;2.73;2.53;;;36.70;29.70;;;;;;5095919;28;20195;-54
2023/07/11 10:38:45;;;;;;;5.93;2.53;;;37.10;28.70;;;;;;5095918;28;20193;-54
2023/07/11 10:41:19;;;;;;;4.43;3.03;;;37.40;27.40;;;;;;5095131;28;20193;-55
2023/07/11 10:43:49;;;;;;;3.67;2.60;;;37.60;26.50;;;;;;5095277;28;20279;-54
2023/07/11 10:46:27;;;;;;;3.03;2.40;;;38.10;26.50;;;;;;5095891;28;20212;-54
2023/07/11 10:48:56;;;;;;;5.93;2.65;;;38.70;26.70;;;;;;5095613;28;20203;-54
2023/07/11 10:51:30;;;;;;;7.00;2.40;;;39.40;24.50;;;;;;5095673;28;20570;-54
2023/07/11 10:54:03;;;;;;;2.85;2.50;;;39.70;24.50;;;;;;5095718;28;20231;-55
2023/07/11 10:56:33;;;;;;;3.45;2.78;;;40.10;23.10;;;;;;5095508;28;20193;-54
2023/07/11 10:59:00;;;;;;;6.50;3.38;;;40.50;23.30;;;;;;5095153;28;20557;-54
2023/07/11 11:01:37;;;;;;;7.32;2.30;;;40.70;23.90;;;;;;5095219;28;20695;-55
2023/07/11 11:04:14;;;;;;;2.70;2.25;;;40.80;22.30;;;;;;5095307;28;20220;-54
2023/07/11 11:06:56;;;;;;;4.20;2.47;;;40.80;22.00;;;;;;5094908;28;20689;-54
2023/07/11 11:09:35;;;;;;;3.88;2.90;;;40.70;23.80;;;;;;5095161;28;20193;-54
2023/07/11 11:12:13;;;;;;;6.95;2.70;;;41.10;22.70;;;;;;5095068;28;20217;-55
2023/07/11 11:14:44;;;;;;;7.15;2.22;;;41.60;22.50;;;;;;5095034;28;20186;-55
2023/07/11 11:17:24;;;;;;;6.50;2.75;;;42.20;22.40;;;;;;5094707;28;20635;-55
2023/07/11 11:20:06;;;;;;;5.13;2.70;;;42.30;20.90;;;;;;5094523;28;20624;-55
2023/07/11 11:22:43;;;;;;;5.75;2.97;;;42.80;21.20;;;;;;5094767;28;20224;-55
2023/07/11 11:25:18;;;;;;;5.47;2.97;;;43.00;20.50;;;;;;5094859;28;20181;-55
2023/07/11 11:27:52;;;;;;;6.15;2.88;;;43.10;20.60;;;;;;5094842;28;20196;-55
2023/07/11 11:30:35;;;;;;;4.32;2.85;;;43.50;20.30;;;;;;5095283;28;20591;-55
2023/07/11 11:33:15;;;;;;;2.90;2.60;;;43.90;20.60;;;;;;5094537;28;20247;-55
2023/07/11 11:35:51;;;;;;;5.38;2.35;;;44.50;20.30;;;;;;5094690;28;20189;-55
2023/07/11 11:38:39;;;;;;;5.38;2.58;;;44.90;19.30;;;;;;5094388;28;20643;-55
2023/07/11 11:41:12;;;;;;;3.67;2.47;;;45.00;19.40;;;;;;5094213;28;20647;-55
2023/07/11 11:43:40;;;;;;;3.60;2.88;;;45.10;18.70;;;;;;5094420;28;20622;-55
2023/07/11 11:46:08;;;;;;;3.92;2.40;;;45.20;18.50;;;;;;5090892;28;20204;-55
2023/07/11 11:48:38;;;;;;;3.38;2.63;;;45.20;18.60;;;;;;5092490;28;20205;-55
2023/07/11 11:51:08;;;;;;;3.63;2.50;;;44.70;18.10;;;;;;5090952;28;20193;-55
2023/07/11 11:53:43;;;;;;;2.95;2.40;;;44.40;19.20;;;;;;5082857;28;20225;-55
2023/07/11 11:56:12;;;;;;;5.97;2.33;;;44.80;19.80;;;;;;5073964;28;20181;-55
2023/07/11 11:58:51;;;;;;;3.90;2.65;;;45.20;19.50;;;;;;5074627;28;20617;-55
2023/07/11 12:01:36;;;;;;;3.10;2.40;;;45.70;18.50;;;;;;5073891;28;20197;-55
2023/07/11 12:04:37;;;;;;;3.58;2.67;;;46.40;18.50;;;;;;5073765;28;20222;-55
2023/07/11 12:07:17;;;;;;;3.90;2.33;;;46.90;17.50;;;;;;5074081;28;20190;-55
2023/07/11 12:09:49;;;;;;;6.18;2.08;;;46.80;17.20;;;;;;5073854;28;20193;-55
2023/07/11 12:12:17;;;;;;;5.00;2.70;;;46.80;16.90;;;;;;5073373;28;20687;-55
2023/07/11 12:14:57;;;;;;;3.15;2.47;;;47.00;17.80;;;;;;5074407;28;20678;-56
2023/07/11 12:17:46;;;;;;;3.10;2.17;;;47.20;17.30;;;;;;5093071;28;20197;-55
2023/07/11 12:20:19;;;;;;;3.45;2.60;;;47.40;17.00;;;;;;5093562;28;20204;-55
2023/07/11 12:23:26;;;;;;;2.95;2.38;;;47.90;16.80;;;;;;5093781;28;20221;-55
2023/07/11 12:26:13;;;;;;;5.32;2.70;;;47.80;15.80;;;;;;5086903;28;20201;-55
2023/07/11 12:28:41;;;;;;;4.47;2.40;;;47.70;16.80;;;;;;5093953;28;20185;-55
2023/07/11 12:31:17;;;;;;;2.10;2.00;;;47.60;16.30;;;;;;5093758;28;20240;-55
2023/07/11 12:33:46;;;;;;;2.45;2.25;;;47.40;17.20;;;;;;5093498;28;20225;-56
2023/07/11 12:36:46;;;;;;;3.30;2.17;;;47.60;17.60;;;;;;5093655;28;20580;-56
2023/07/11 12:39:34;;;;;;;2.55;2.20;;;47.90;16.90;;;;;;5093330;28;20186;-55
2023/07/11 12:42:13;;;;;;;3.53;2.30;;;48.40;16.70;;;;;;5093586;28;20197;-56
2023/07/11 12:44:40;;;;;;;3.33;2.08;;;48.90;15.80;;;;;;5093228;28;20185;-56
2023/07/11 12:47:13;;;;;;;2.75;2.15;;;49.30;14.90;;;;;;5093525;28;20209;-55
2023/07/11 12:49:43;;;;;;;5.68;1.90;;;49.50;15.70;;;;;;5093560;28;20280;-56
2023/07/11 12:52:12;;;;;;;3.65;2.35;;;49.90;15.70;;;;;;5093035;28;20670;-56
2023/07/11 12:54:39;;;;;;;2.92;2.53;;;50.30;14.50;;;;;;5093403;28;20205;-56
2023/07/11 12:57:13;;;;;;;3.40;2.30;;;50.40;14.20;;;;;;5093493;28;20196;-56